createdAt,value
2022-09-13T00:01:08.021Z,13.65
2022-09-13T00:03:36.033Z,14.77
2022-09-13T00:06:11.894Z,16.05
2022-09-13T00:08:40.114Z,14.52
2022-09-13T00:11:08.564Z,16.08
2022-09-13T00:13:36.544Z,14.18
2022-09-13T00:16:05.367Z,17.30
2022-09-13T00:18:34.911Z,14.68
2022-09-13T00:21:11.633Z,17.00
2022-09-13T00:23:45.274Z,19.48
2022-09-13T00:26:15.434Z,16.70
2022-09-13T00:28:45.389Z,15.40
2022-09-13T00:31:14.109Z,15.88
2022-09-13T00:33:43.507Z,15.02
2022-09-13T00:36:15.286Z,15.10
2022-09-13T00:38:46.198Z,19.20
2022-09-13T00:41:17.012Z,16.13
2022-09-13T00:43:49.681Z,12.88
2022-09-13T00:46:35.357Z,16.15
2022-09-13T00:49:14.957Z,14.35
2022-09-13T00:51:47.014Z,13.40
2022-09-13T00:54:18.044Z,17.40
2022-09-13T00:56:50.660Z,14.65
2022-09-13T00:59:24.423Z,15.15
2022-09-13T01:01:56.292Z,16.48
2022-09-13T01:04:29.063Z,16.80
2022-09-13T01:07:02.137Z,14.25
2022-09-13T01:09:33.461Z,13.38
2022-09-13T01:12:08.382Z,15.15
2022-09-13T01:14:39.979Z,15.85
2022-09-13T01:17:09.742Z,15.88
2022-09-13T01:19:39.186Z,16.33
2022-09-13T01:22:36.313Z,16.77
2022-09-13T01:25:30.292Z,18.45
2022-09-13T01:28:19.045Z,15.27
2022-09-13T01:30:56.978Z,15.95
2022-09-13T01:33:46.049Z,16.92
2022-09-13T01:36:33.156Z,16.08
2022-09-13T01:39:05.792Z,16.05
2022-09-13T01:41:47.394Z,15.45
2022-09-13T01:44:25.538Z,19.40
2022-09-13T01:47:04.377Z,17.80
2022-09-13T01:49:43.568Z,15.82
2022-09-13T01:52:21.449Z,16.80
2022-09-13T01:54:57.281Z,17.13
2022-09-13T01:57:32.783Z,17.90
2022-09-13T02:00:04.298Z,16.85
2022-09-13T02:02:40.023Z,16.20
2022-09-13T02:05:13.939Z,16.08
2022-09-13T02:07:44.663Z,14.48
2022-09-13T02:10:20.183Z,19.17
2022-09-13T02:12:50.611Z,18.33
2022-09-13T02:15:23.489Z,17.27
2022-09-13T02:20:29.779Z,17.77
2022-09-13T02:23:03.232Z,16.83
2022-09-13T02:25:34.144Z,18.63
2022-09-13T02:28:07.423Z,19.38
2022-09-13T02:30:40.352Z,17.98
2022-09-13T02:35:45.964Z,16.98
2022-09-13T02:38:19.623Z,16.27
2022-09-13T02:40:54.874Z,18.48
2022-09-13T02:43:29.330Z,17.38
2022-09-13T02:46:09.903Z,17.75
2022-09-13T02:48:51.104Z,21.15
2022-09-13T02:51:30.540Z,18.17
2022-09-13T02:54:10.577Z,19.95
2022-09-13T02:56:49.465Z,16.95
2022-09-13T02:59:19.082Z,16.70
2022-09-13T03:01:51.904Z,15.73
2022-09-13T03:06:50.928Z,16.23
2022-09-13T03:09:19.632Z,16.10
2022-09-13T03:12:07.945Z,18.77
2022-09-13T03:14:47.519Z,16.23
2022-09-13T03:17:35.640Z,17.70
2022-09-13T03:20:18.553Z,17.85
2022-09-13T03:23:12.072Z,16.73
2022-09-13T03:25:58.498Z,16.00
2022-09-13T03:28:38.718Z,17.10
2022-09-13T03:31:11.929Z,16.13
2022-09-13T03:33:47.754Z,16.73
2022-09-13T03:36:25.795Z,17.00
2022-09-13T03:39:01.790Z,17.25
2022-09-13T03:41:35.788Z,16.40
2022-09-13T03:44:07.310Z,16.63
2022-09-13T03:46:38.688Z,17.27
2022-09-13T03:49:10.291Z,17.20
2022-09-13T03:51:41.075Z,17.75
2022-09-13T03:54:13.934Z,16.38
2022-09-13T03:59:10.066Z,16.55
2022-09-13T04:01:38.023Z,17.17
2022-09-13T04:04:06.197Z,17.48
2022-09-13T04:06:36.480Z,17.77
2022-09-13T04:09:05.845Z,17.33
2022-09-13T04:11:33.745Z,16.23
2022-09-13T04:14:01.785Z,18.17
2022-09-13T04:16:32.602Z,17.70
2022-09-13T04:19:00.751Z,18.02
2022-09-13T04:21:28.708Z,18.02
2022-09-13T04:23:56.905Z,19.45
2022-09-13T04:26:29.281Z,16.15
2022-09-13T04:28:57.311Z,18.00
2022-09-13T04:31:25.317Z,18.15
2022-09-13T04:33:54.231Z,17.55
2022-09-13T04:36:22.958Z,17.55
2022-09-13T04:38:50.950Z,18.30
2022-09-13T04:41:18.995Z,17.95
2022-09-13T04:43:51.837Z,16.30
2022-09-13T04:46:22.485Z,19.38
2022-09-13T04:48:51.592Z,18.77
2022-09-13T04:51:19.895Z,19.90
2022-09-13T04:53:48.267Z,16.42
2022-09-13T04:56:16.538Z,16.40
2022-09-13T04:58:44.559Z,17.25
2022-09-13T05:01:14.486Z,19.83
2022-09-13T05:03:42.488Z,19.77
2022-09-13T05:06:11.914Z,20.08
2022-09-13T05:08:40.093Z,17.35
2022-09-13T05:11:09.111Z,19.92
2022-09-13T05:13:37.656Z,19.48
2022-09-13T05:16:07.575Z,18.63
2022-09-13T05:18:41.976Z,17.50
2022-09-13T05:21:12.657Z,18.30
2022-09-13T05:23:40.614Z,18.58
2022-09-13T05:26:08.988Z,16.83
2022-09-13T05:28:38.148Z,17.35
2022-09-13T05:31:08.031Z,17.70
2022-09-13T05:33:39.803Z,21.63
2022-09-13T05:36:08.177Z,18.55
2022-09-13T05:38:36.115Z,18.10
2022-09-13T05:41:05.723Z,18.95
2022-09-13T05:43:35.376Z,19.00
2022-09-13T05:46:08.242Z,20.45
2022-09-13T05:48:37.675Z,18.75
2022-09-13T05:51:07.318Z,18.88
2022-09-13T05:53:35.672Z,19.65
2022-09-13T05:56:05.126Z,21.60
2022-09-13T05:58:33.785Z,19.67
2022-09-13T06:01:01.981Z,20.10
2022-09-13T06:03:32.899Z,19.02
2022-09-13T06:06:02.228Z,18.40
2022-09-13T06:08:34.583Z,19.17
2022-09-13T06:11:04.676Z,18.27
2022-09-13T06:13:33.756Z,19.65
2022-09-13T06:16:04.126Z,18.40
2022-09-13T06:18:32.589Z,21.80
2022-09-13T06:21:03.824Z,22.65
2022-09-13T06:23:32.405Z,21.92
2022-09-13T06:26:05.094Z,20.50
2022-09-13T06:28:37.284Z,20.63
2022-09-13T06:31:07.682Z,22.67
2022-09-13T06:33:39.595Z,21.27
2022-09-13T06:36:11.477Z,22.70
2022-09-13T06:38:40.882Z,20.92
2022-09-13T06:41:10.974Z,21.98
2022-09-13T06:43:39.434Z,21.33
2022-09-13T06:46:11.426Z,23.63
2022-09-13T06:48:42.122Z,29.73
2022-09-13T06:51:14.213Z,23.88
2022-09-13T06:53:43.489Z,26.75
2022-09-13T06:56:15.892Z,23.38
2022-09-13T06:58:46.957Z,22.02
2022-09-13T07:01:17.529Z,23.80
2022-09-13T07:03:47.759Z,21.02
2022-09-13T07:06:22.188Z,21.52
2022-09-13T07:08:52.271Z,20.75
2022-09-13T07:11:22.624Z,24.05
2022-09-13T07:13:51.403Z,24.80
2022-09-13T07:16:21.153Z,25.27
2022-09-13T07:18:53.275Z,22.75
2022-09-13T07:21:23.346Z,24.40
2022-09-13T07:23:53.210Z,24.90
2022-09-13T07:26:21.521Z,25.42
2022-09-13T07:28:53.184Z,27.73
2022-09-13T07:31:22.752Z,27.52
2022-09-13T07:33:55.637Z,23.60
2022-09-13T07:38:53.025Z,25.10
2022-09-13T07:41:22.979Z,26.98
2022-09-13T07:43:51.966Z,26.25
2022-09-13T07:46:21.681Z,28.05
2022-09-13T07:48:50.579Z,30.63
2022-09-13T07:51:21.114Z,30.55
2022-09-13T07:53:57.262Z,27.23
2022-09-13T07:56:27.807Z,27.10
2022-09-13T07:58:56.113Z,28.02
2022-09-13T08:01:25.610Z,25.95
2022-09-13T08:03:55.053Z,24.40
2022-09-13T08:06:23.756Z,17.63
2022-09-13T08:08:53.312Z,15.57
2022-09-13T08:11:23.000Z,17.45
2022-09-13T08:13:52.226Z,16.15
2022-09-13T08:16:25.203Z,14.23
2022-09-13T08:18:54.843Z,13.85
2022-09-13T08:21:24.445Z,15.60
2022-09-13T08:24:00.431Z,13.88
2022-09-13T08:26:28.801Z,14.43
2022-09-13T08:28:58.457Z,10.15
2022-09-13T08:31:26.810Z,9.88
2022-09-13T08:33:55.958Z,8.07
2022-09-13T08:36:24.969Z,7.07
2022-09-13T08:38:55.838Z,10.90
2022-09-13T08:41:52.523Z,14.07
2022-09-13T08:44:28.780Z,12.32
2022-09-13T08:47:03.910Z,12.52
2022-09-13T08:49:35.738Z,16.77
2022-09-13T08:52:15.995Z,14.10
2022-09-13T08:54:46.950Z,15.32
2022-09-13T08:57:23.917Z,15.55
2022-09-13T09:00:00.824Z,17.70
2022-09-13T09:02:54.959Z,14.98
2022-09-13T09:05:24.895Z,17.67
2022-09-13T09:07:59.603Z,14.93
2022-09-13T09:10:31.485Z,17.15
2022-09-13T09:13:07.550Z,15.00
2022-09-13T09:15:38.712Z,15.77
2022-09-13T09:18:12.634Z,15.23
2022-09-13T09:20:43.781Z,14.63
2022-09-13T09:23:21.167Z,12.57
2022-09-13T09:25:53.660Z,13.50
2022-09-13T09:28:23.158Z,15.30
2022-09-13T09:31:00.396Z,12.82
2022-09-13T09:33:48.467Z,12.43
2022-09-13T09:36:24.947Z,13.20
2022-09-13T09:38:53.048Z,14.40
2022-09-13T09:41:28.937Z,12.35
2022-09-13T09:44:07.374Z,12.70
2022-09-13T09:46:39.847Z,13.77
2022-09-13T09:49:35.770Z,13.02
2022-09-13T09:52:07.456Z,13.05
2022-09-13T09:54:38.053Z,12.40
2022-09-13T09:57:08.131Z,10.85
2022-09-13T09:59:37.602Z,11.65
2022-09-13T10:02:18.168Z,11.30
2022-09-13T10:04:56.886Z,9.95
2022-09-13T10:07:32.715Z,8.80
2022-09-13T10:10:04.574Z,9.10
2022-09-13T10:12:35.743Z,10.93
2022-09-13T10:15:17.350Z,9.25
2022-09-13T10:18:01.975Z,7.63
2022-09-13T10:20:31.707Z,9.02
2022-09-13T10:23:22.285Z,9.93
2022-09-13T10:26:02.589Z,10.02
2022-09-13T10:28:33.909Z,10.48
2022-09-13T10:31:10.483Z,7.80
2022-09-13T10:33:43.622Z,8.18
2022-09-13T10:36:29.516Z,8.50
2022-09-13T10:39:05.639Z,7.00
2022-09-13T10:41:38.675Z,7.90
2022-09-13T10:44:23.811Z,7.60
2022-09-13T10:46:53.803Z,7.55
2022-09-13T10:49:45.482Z,8.90
2022-09-13T10:52:34.587Z,6.32
2022-09-13T10:55:37.299Z,6.93
2022-09-13T10:58:17.813Z,6.93
2022-09-13T11:01:22.409Z,7.50
2022-09-13T11:04:43.948Z,7.65
2022-09-13T11:07:24.507Z,8.52
2022-09-13T11:10:00.799Z,7.13
2022-09-13T11:12:37.162Z,5.90
2022-09-13T11:15:16.130Z,5.07
2022-09-13T11:18:01.901Z,6.10
2022-09-13T11:20:40.287Z,6.38
2022-09-13T11:23:38.807Z,4.78
2022-09-13T11:26:24.714Z,4.32
2022-09-13T11:29:05.368Z,2.47
2022-09-13T11:31:47.001Z,4.88
2022-09-13T11:34:33.286Z,4.45
2022-09-13T11:37:21.347Z,3.67
2022-09-13T11:40:04.090Z,3.33
2022-09-13T11:42:45.223Z,3.63
2022-09-13T11:45:26.166Z,2.92
2022-09-13T11:48:19.151Z,4.43
2022-09-13T11:50:55.822Z,5.20
2022-09-13T11:53:45.531Z,4.15
2022-09-13T11:56:20.638Z,2.92
2022-09-13T11:58:53.427Z,4.43
2022-09-13T12:01:26.638Z,4.10
2022-09-13T12:04:01.108Z,3.13
2022-09-13T12:06:34.112Z,2.65
2022-09-13T12:09:07.150Z,4.25
2022-09-13T12:11:40.270Z,3.10
2022-09-13T12:14:13.371Z,4.13
2022-09-13T12:16:44.790Z,4.45
2022-09-13T12:19:19.180Z,3.38
2022-09-13T12:21:52.428Z,4.03
2022-09-13T12:24:29.469Z,4.70
2022-09-13T12:27:02.347Z,3.17
2022-09-13T12:29:36.523Z,1.80
2022-09-13T12:32:07.521Z,2.40
2022-09-13T12:34:44.249Z,3.28
2022-09-13T12:37:34.854Z,3.45
2022-09-13T12:40:27.020Z,2.90
2022-09-13T12:43:11.554Z,4.10
2022-09-13T12:46:10.293Z,4.55
2022-09-13T12:49:16.613Z,2.42
2022-09-13T12:52:07.306Z,1.33
2022-09-13T12:54:53.804Z,5.55
2022-09-13T12:57:36.111Z,2.97
2022-09-13T13:00:23.186Z,2.97
2022-09-13T13:03:10.271Z,3.28
2022-09-13T13:05:41.129Z,4.38
2022-09-13T13:08:29.348Z,1.52
2022-09-13T13:11:06.903Z,3.28
2022-09-13T13:13:39.550Z,4.85
2022-09-13T13:16:25.713Z,3.17
2022-09-13T13:18:54.893Z,2.88
2022-09-13T13:21:38.984Z,2.28
2022-09-13T13:24:47.081Z,2.78
2022-09-13T13:27:37.674Z,3.03
2022-09-13T13:30:41.534Z,2.78
2022-09-13T13:33:25.804Z,3.10
2022-09-13T13:35:53.999Z,3.20
2022-09-13T13:38:42.571Z,2.92
2022-09-13T13:41:45.890Z,1.55
2022-09-13T13:44:53.182Z,2.80
2022-09-13T13:48:03.124Z,1.95
2022-09-13T13:50:35.101Z,3.28
2022-09-13T13:53:24.459Z,2.22
2022-09-13T13:56:09.499Z,3.15
2022-09-13T13:58:48.295Z,4.00
2022-09-13T14:01:22.265Z,3.65
2022-09-13T14:04:11.896Z,2.47
2022-09-13T14:06:54.321Z,4.30
2022-09-13T14:09:38.237Z,3.25
2022-09-13T14:12:21.196Z,1.83
2022-09-13T14:15:32.784Z,2.63
2022-09-13T14:18:16.395Z,5.53
2022-09-13T14:20:59.361Z,3.28
2022-09-13T14:23:29.462Z,2.28
2022-09-13T14:26:00.187Z,2.28
2022-09-13T14:28:29.040Z,4.15
2022-09-13T14:30:58.714Z,3.65
2022-09-13T14:33:32.192Z,3.05
2022-09-13T14:36:04.100Z,2.83
2022-09-13T14:38:35.646Z,2.00
2022-09-13T14:41:14.492Z,4.67
2022-09-13T14:43:43.195Z,2.42
2022-09-13T14:46:16.255Z,2.03
2022-09-13T14:48:51.497Z,2.05
2022-09-13T14:51:24.444Z,3.38
2022-09-13T14:53:59.239Z,3.90
2022-09-13T14:56:34.369Z,2.53
2022-09-13T14:59:07.912Z,2.63
2022-09-13T15:01:37.243Z,5.70
2022-09-13T15:04:07.466Z,2.90
2022-09-13T15:06:41.348Z,2.83
2022-09-13T15:09:27.518Z,2.67
2022-09-13T15:12:01.108Z,2.92
2022-09-13T15:14:32.131Z,5.38
2022-09-13T15:17:07.462Z,4.75
2022-09-13T15:19:41.793Z,4.38
2022-09-13T15:22:21.749Z,3.92
2022-09-13T15:24:55.975Z,3.88
2022-09-13T15:27:28.005Z,3.67
2022-09-13T15:29:58.651Z,4.88
2022-09-13T15:32:33.950Z,3.60
2022-09-13T15:35:04.538Z,3.30
2022-09-13T15:37:35.965Z,3.90
2022-09-13T15:40:15.942Z,2.80
2022-09-13T15:42:47.439Z,4.40
2022-09-13T15:45:15.768Z,5.15
2022-09-13T15:47:46.968Z,4.50
2022-09-13T15:50:27.084Z,5.28
2022-09-13T15:52:55.254Z,5.88
2022-09-13T15:55:25.182Z,5.25
2022-09-13T15:57:53.521Z,7.07
2022-09-13T16:00:23.911Z,2.35
2022-09-13T16:02:52.808Z,3.78
2022-09-13T16:05:21.275Z,4.43
2022-09-13T16:07:49.448Z,5.88
2022-09-13T16:10:20.037Z,2.47
2022-09-13T16:12:49.650Z,4.57
2022-09-13T16:15:17.829Z,2.95
2022-09-13T16:17:45.714Z,2.70
2022-09-13T16:20:16.093Z,2.45
2022-09-13T16:22:44.121Z,4.13
2022-09-13T16:25:14.163Z,4.55
2022-09-13T16:27:42.832Z,2.60
2022-09-13T16:30:15.119Z,3.22
2022-09-13T16:32:43.197Z,6.05
2022-09-13T16:35:12.616Z,3.83
2022-09-13T16:37:44.549Z,6.43
2022-09-13T16:40:13.737Z,5.80
2022-09-13T16:42:41.866Z,5.57
2022-09-13T16:45:11.888Z,3.65
2022-09-13T16:47:42.383Z,5.72
2022-09-13T16:50:11.431Z,4.38
2022-09-13T16:52:39.847Z,3.90
2022-09-13T16:55:08.595Z,4.90
2022-09-13T16:57:37.203Z,4.22
2022-09-13T17:00:09.196Z,3.22
2022-09-13T17:02:37.556Z,4.20
2022-09-13T17:05:08.535Z,4.18
2022-09-13T17:07:36.972Z,4.43
2022-09-13T17:10:07.229Z,3.25
2022-09-13T17:12:35.577Z,3.50
2022-09-13T17:15:03.586Z,4.60
2022-09-13T17:17:36.057Z,5.13
2022-09-13T17:20:09.421Z,8.75
2022-09-13T17:22:37.790Z,5.63
2022-09-13T17:25:07.900Z,4.18
2022-09-13T17:27:36.045Z,2.85
2022-09-13T17:30:05.175Z,3.90
2022-09-13T17:32:33.440Z,5.75
2022-09-13T17:35:01.742Z,9.02
2022-09-13T17:37:31.212Z,5.10
2022-09-13T17:39:59.401Z,5.82
2022-09-13T17:42:27.781Z,6.13
2022-09-13T17:44:55.865Z,4.97
2022-09-13T17:47:23.959Z,8.23
2022-09-13T17:49:51.979Z,6.20
2022-09-13T17:52:19.967Z,5.15
2022-09-13T17:54:50.279Z,8.00
2022-09-13T17:57:18.302Z,4.65
2022-09-13T17:59:47.337Z,5.80
2022-09-13T18:02:15.341Z,4.47
2022-09-13T18:04:45.997Z,8.70
2022-09-13T18:07:14.126Z,6.10
2022-09-13T18:09:42.052Z,6.38
2022-09-13T18:12:11.988Z,6.80
2022-09-13T18:14:40.085Z,5.03
2022-09-13T18:17:13.116Z,5.65
2022-09-13T18:19:46.802Z,3.22
2022-09-13T18:22:15.789Z,5.47
2022-09-13T18:24:43.773Z,4.18
2022-09-13T18:27:13.146Z,6.25
2022-09-13T18:29:41.148Z,6.40
2022-09-13T18:32:09.349Z,4.53
2022-09-13T18:34:37.449Z,3.13
2022-09-13T18:37:05.740Z,4.07
2022-09-13T18:39:33.750Z,4.45
2022-09-13T18:42:01.753Z,6.90
2022-09-13T18:44:33.790Z,6.47
2022-09-13T18:47:03.318Z,7.20
2022-09-13T18:49:31.768Z,5.93
2022-09-13T18:51:59.937Z,7.25
2022-09-13T18:54:28.304Z,7.47
2022-09-13T18:56:57.670Z,7.45
2022-09-13T18:59:27.728Z,4.72
2022-09-13T19:01:58.453Z,4.00
2022-09-13T19:04:27.710Z,3.88
2022-09-13T19:06:57.578Z,8.35
2022-09-13T19:09:26.554Z,5.88
2022-09-13T19:11:55.698Z,5.32
2022-09-13T19:14:26.199Z,5.47
2022-09-13T19:17:00.562Z,6.05
2022-09-13T19:19:30.557Z,5.28
2022-09-13T19:21:58.888Z,6.82
2022-09-13T19:24:30.516Z,4.53
2022-09-13T19:26:59.203Z,3.85
2022-09-13T19:29:28.360Z,6.20
2022-09-13T19:31:59.978Z,8.25
2022-09-13T19:34:28.189Z,9.10
2022-09-13T19:36:58.358Z,7.30
2022-09-13T19:39:29.887Z,6.05
2022-09-13T19:41:59.919Z,4.55
2022-09-13T19:44:28.606Z,5.43
2022-09-13T19:47:36.063Z,6.88
2022-09-13T19:49:46.272Z,5.45
2022-09-13T19:52:14.262Z,6.82
2022-09-13T19:54:42.416Z,9.45
2022-09-13T19:57:10.639Z,6.32
2022-09-13T19:59:38.747Z,7.90
2022-09-13T20:02:08.111Z,7.78
2022-09-13T20:04:38.741Z,7.43
2022-09-13T20:07:12.062Z,4.88
2022-09-13T20:09:42.308Z,4.70
2022-09-13T20:12:12.620Z,7.07
2022-09-13T20:14:40.958Z,8.43
2022-09-13T20:17:10.388Z,9.32
2022-09-13T20:19:42.791Z,6.78
2022-09-13T20:22:13.121Z,6.60
2022-09-13T20:24:41.148Z,10.07
2022-09-13T20:27:09.654Z,10.93
2022-09-13T20:29:37.698Z,6.60
2022-09-13T20:32:05.778Z,7.43
2022-09-13T20:34:35.494Z,8.23
2022-09-13T20:37:03.653Z,6.07
2022-09-13T20:39:33.938Z,6.80
2022-09-13T20:42:04.438Z,8.40
2022-09-13T20:44:32.381Z,7.35
2022-09-13T20:47:00.621Z,7.05
2022-09-13T20:49:30.292Z,7.80
2022-09-13T20:51:59.997Z,8.32
2022-09-13T20:54:28.071Z,10.50
2022-09-13T20:56:56.369Z,8.13
2022-09-13T20:59:24.296Z,11.25
2022-09-13T21:01:52.389Z,7.47
2022-09-13T21:04:21.013Z,8.00
2022-09-13T21:07:14.692Z,5.78
2022-09-13T21:09:47.517Z,5.70
2022-09-13T21:12:15.553Z,8.32
2022-09-13T21:14:43.703Z,7.75
2022-09-13T21:17:12.149Z,8.43
2022-09-13T21:19:40.388Z,8.23
2022-09-13T21:22:10.283Z,7.00
2022-09-13T21:24:38.447Z,8.70
2022-09-13T21:27:07.797Z,8.57
2022-09-13T21:29:36.546Z,9.80
2022-09-13T21:32:04.699Z,6.70
2022-09-13T21:34:35.828Z,8.65
2022-09-13T21:37:05.467Z,7.93
2022-09-13T21:39:33.716Z,9.07
2022-09-13T21:42:02.428Z,8.65
2022-09-13T21:44:31.992Z,7.60
2022-09-13T21:47:00.235Z,10.43
2022-09-13T21:49:28.656Z,7.57
2022-09-13T21:51:56.728Z,8.40
2022-09-13T21:54:24.699Z,8.77
2022-09-13T21:56:54.879Z,8.50
2022-09-13T21:59:26.358Z,6.60
2022-09-13T22:01:55.895Z,9.60
2022-09-13T22:04:27.499Z,7.68
2022-09-13T22:06:56.453Z,9.35
2022-09-13T22:09:28.165Z,10.43
2022-09-13T22:11:57.426Z,7.85
2022-09-13T22:14:26.629Z,9.18
2022-09-13T22:16:56.074Z,9.18
2022-09-13T22:19:26.508Z,9.88
2022-09-13T22:21:56.401Z,10.50
2022-09-13T22:24:25.763Z,6.72
2022-09-13T22:26:55.354Z,10.45
2022-09-13T22:29:24.152Z,8.38
2022-09-13T22:31:56.294Z,10.07
2022-09-13T22:34:26.112Z,7.55
2022-09-13T22:36:55.633Z,8.90
2022-09-13T22:39:24.465Z,8.15
2022-09-13T22:41:52.570Z,9.20
2022-09-13T22:44:20.589Z,12.27
2022-09-13T22:46:48.912Z,8.85
2022-09-13T22:49:20.988Z,9.93
2022-09-13T22:51:49.450Z,11.63
2022-09-13T22:54:18.817Z,8.55
2022-09-13T22:56:49.649Z,7.25
2022-09-13T22:59:19.529Z,8.13
2022-09-13T23:01:47.888Z,9.40
2022-09-13T23:04:16.302Z,10.25
2022-09-13T23:06:48.749Z,5.00
2022-09-13T23:09:18.599Z,8.32
2022-09-13T23:11:47.298Z,10.82
2022-09-13T23:14:17.688Z,5.40
2022-09-13T23:16:50.073Z,6.95
2022-09-13T23:19:20.322Z,7.65
2022-09-13T23:21:50.167Z,9.18
2022-09-13T23:24:19.290Z,9.80
2022-09-13T23:26:47.743Z,8.88
2022-09-13T23:29:18.173Z,11.43
2022-09-13T23:31:47.152Z,8.18
2022-09-13T23:34:16.068Z,9.38
2022-09-13T23:36:45.559Z,7.43
2022-09-13T23:39:17.551Z,9.65
2022-09-13T23:41:46.209Z,7.53
2022-09-13T23:44:14.803Z,14.23
2022-09-13T23:46:42.959Z,6.93
2022-09-13T23:49:11.210Z,10.30
2022-09-13T23:51:39.180Z,8.00
2022-09-13T23:54:07.603Z,9.50
2022-09-13T23:56:37.200Z,7.25
2022-09-13T23:59:06.379Z,7.68
